地図

経路データ

SID SEASON NUMBER BASIN SUBBASIN NAME ISO_TIME NATURE LAT LON WMO_WIND WMO_PRES WMO_AGENCY TRACK_TYPE DIST2LAND LANDFALL IFLAG USA_AGENCY USA_ATCF_ID USA_LAT USA_LON USA_RECORD USA_STATUS USA_WIND USA_PRES USA_SSHS USA_R34_NE USA_R34_SE USA_R34_SW USA_R34_NW USA_R50_NE USA_R50_SE USA_R50_SW USA_R50_NW USA_R64_NE USA_R64_SE USA_R64_SW USA_R64_NW USA_POCI USA_ROCI USA_RMW USA_EYE TOKYO_LAT TOKYO_LON TOKYO_GRADE TOKYO_WIND TOKYO_PRES TOKYO_R50_DIR TOKYO_R50_LONG TOKYO_R50_SHORT TOKYO_R30_DIR TOKYO_R30_LONG TOKYO_R30_SHORT TOKYO_LAND CMA_LAT CMA_LON CMA_CAT CMA_WIND CMA_PRES HKO_LAT HKO_LON HKO_CAT HKO_WIND HKO_PRES NEWDELHI_LAT NEWDELHI_LON NEWDELHI_GRADE NEWDELHI_WIND NEWDELHI_PRES NEWDELHI_CI NEWDELHI_DP NEWDELHI_POCI REUNION_LAT REUNION_LON REUNION_TYPE REUNION_WIND REUNION_PRES REUNION_TNUM REUNION_CI REUNION_RMW REUNION_R34_NE REUNION_R34_SE REUNION_R34_SW REUNION_R34_NW REUNION_R50_NE REUNION_R50_SE REUNION_R50_SW REUNION_R50_NW REUNION_R64_NE REUNION_R64_SE REUNION_R64_SW REUNION_R64_NW BOM_LAT BOM_LON BOM_TYPE BOM_WIND BOM_PRES BOM_TNUM BOM_CI BOM_RMW BOM_R34_NE BOM_R34_SE BOM_R34_SW BOM_R34_NW BOM_R50_NE BOM_R50_SE BOM_R50_SW BOM_R50_NW BOM_R64_NE BOM_R64_SE BOM_R64_SW BOM_R64_NW BOM_ROCI BOM_POCI BOM_EYE BOM_POS_METHOD BOM_PRES_METHOD NADI_LAT NADI_LON NADI_CAT NADI_WIND NADI_PRES WELLINGTON_LAT WELLINGTON_LON WELLINGTON_WIND WELLINGTON_PRES DS824_LAT DS824_LON DS824_STAGE DS824_WIND DS824_PRES TD9636_LAT TD9636_LON TD9636_STAGE TD9636_WIND TD9636_PRES TD9635_LAT TD9635_LON TD9635_WIND TD9635_PRES TD9635_ROCI NEUMANN_LAT NEUMANN_LON NEUMANN_CLASS NEUMANN_WIND NEUMANN_PRES MLC_LAT MLC_LON MLC_CLASS MLC_WIND MLC_PRES USA_GUST BOM_GUST BOM_GUST_PER REUNION_GUST REUNION_GUST_PER USA_SEAHGT USA_SEARAD_NE USA_SEARAD_SE USA_SEARAD_SW USA_SEARAD_NW STORM_SPEED STORM_DIR
2004042N08148 2004 6 WP MM NOT_NAMED 2004-02-10 18:00:00 NR 7.80000 148.000 main 1111 1110 O_____________ jtwc_wp WP012004 7.80000 148.000 DB 15 1006 -3 8 296
2004042N08148 2004 6 WP MM NOT_NAMED 2004-02-10 21:00:00 NR 7.98505 147.618 main 1132 1131 P_____________ WP012004 7.98505 147.618 DB 15 1006 -3 9 297
2004042N08148 2004 6 WP MM NOT_NAMED 2004-02-11 00:00:00 NR 8.20000 147.200 main 1154 1154 O_____________ jtwc_wp WP012004 8.20000 147.200 DB 15 1006 -3 10 299
2004042N08148 2004 6 WP MM NOT_NAMED 2004-02-11 03:00:00 NR 8.46996 146.722 main 1187 1187 P_____________ WP012004 8.46996 146.722 DB 17 1005 -3 12 301
2004042N08148 2004 6 WP MM NOT_NAMED 2004-02-11 06:00:00 NR 8.80000 146.200 main 1222 1222 O_____________ jtwc_wp WP012004 8.80000 146.200 DB 20 1004 -3 13 304
2004042N08148 2004 6 WP MM NOT_NAMED 2004-02-11 09:00:00 NR 9.18495 145.657 main 1270 1270 P_____________ WP012004 9.18495 145.657 DB 20 1004 -3 14 307
2004042N08148 2004 6 WP MM NOT_NAMED 2004-02-11 12:00:00 TS 9.64000 145.080 main 1321 1321 O_O___________ jtwc_wp WP012004 9.60000 145.100 DB 20 1004 -3 9.80000 145.000 0 19 1004 14 308
2004042N08148 2004 6 WP MM NOT_NAMED 2004-02-11 15:00:00 TS 10.0641 144.517 main 1386 1386 P_P___________ WP012004 10.0073 144.565 DB 22 1003 -3 10.1776 144.420 0 19 1004 14 306
2004042N08148 2004 6 WP MM NOT_NAMED 2004-02-11 18:00:00 TS 10.4857 143.914 main 1443 1443 O_O___________ jtwc_wp WP012004 10.4000 144.000 TD 25 1002 -1 10.6000 143.800 0 19 1004 15 305
2004042N08148 2004 6 WP MM NOT_NAMED 2004-02-11 21:00:00 TS 10.9262 143.250 main 1501 1501 P_P___________ WP012004 10.7724 143.372 TD 25 1002 -1 11.0801 143.128 0 19 1004 15 302
2004042N08148 2004 6 WP MM NOT_NAMED 2004-02-12 00:00:00 TS 11.3000 142.600 main 1525 1521 O_O___________ jtwc_wp WP012004 11.1000 142.700 TD 25 1002 -1 1006 120 60 11.5000 142.500 0 19 1004 14 297
2004042N08148 2004 6 WP MM NOT_NAMED 2004-02-12 03:00:00 TS 11.5361 142.017 main 1526 1526 P_P___________ WP012004 11.3201 141.977 TD 27 1001 -1 1006 82 45 11.7521 142.057 0 24 1003 12 292
2004042N08148 2004 6 WP MM NOT_NAMED 2004-02-12 06:00:00 TS 11.7500 141.450 main 1541 1532 O_O___________ jtwc_wp WP012004 11.6000 141.300 TD 30 1000 -1 1006 45 30 11.9000 141.600 1 29 1002 13 298
2004042N08148 2004 6 WP MM NOT_NAMED 2004-02-12 09:00:00 TS 12.1160 140.880 main 1547 1543 P_P___________ WP012004 12.2095 140.801 TD 30 1000 -1 1006 82 30 12.0224 140.960 1 29 1002 13 299
2004042N08148 2004 6 WP MM NOT_NAMED 2004-02-12 12:00:00 TS 12.4000 140.250 main 1556 1497 O_O___________ jtwc_wp WP012004 12.7000 140.300 TD 30 1000 -1 1006 120 30 12.1000 140.200 1 29 1002 14 281
2004042N08148 2004 6 WP MM NOT_NAMED 2004-02-12 15:00:00 TS 12.3914 139.475 main 1497 1409 P_P___________ WP012004 12.6326 139.622 TD 30 1000 -1 1006 120 30 12.1503 139.327 1 29 1002 15 266
2004042N08148 2004 6 WP MM NOT_NAMED 2004-02-12 18:00:00 TS 12.3000 138.700 main 1409 1346 O_O___________ jtwc_wp WP012004 12.4000 138.900 TD 30 1000 -1 1007 120 30 12.2000 138.500 1 29 1002 14 267
2004042N08148 2004 6 WP MM NOT_NAMED 2004-02-12 21:00:00 TS 12.3124 138.040 main 1335 1284 P_P___________ WP012004 12.3475 138.213 TD 30 1000 -1 1007 120 30 12.2772 137.867 1 29 1002 12 275
2004042N08148 2004 6 WP MM NOT_NAMED 2004-02-13 00:00:00 TS 12.4000 137.500 main 1284 1242 O_O___________ jtwc_wp WP012004 12.4000 137.600 TD 30 1000 -1 1007 120 30 12.4000 137.400 1 29 1002 10 285
2004042N08148 2004 6 WP MM NOT_NAMED 2004-02-13 03:00:00 TS 12.5623 137.095 main 1243 1212 P_P___________ WP012004 12.5548 137.113 TD 30 1000 -1 1007 120 30 12.5698 137.077 1 29 1002 8 299
2004042N08148 2004 6 WP MM NOT_NAMED 2004-02-13 06:00:00 TS 12.8000 136.750 main 1214 1175 O_O___________ jtwc_wp WP012004 12.8000 136.700 TD 30 1000 -1 1008 120 30 12.8000 136.800 1 29 1002 9 305
2004042N08148 2004 6 WP MM NOT_NAMED 2004-02-13 09:00:00 TS 13.0850 136.335 main 1166 1138 P_P___________ WP012004 13.0775 136.270 TD 32 998 -1 1008 110 30 13.0926 136.400 1 29 1002 10 308
2004042N08148 2004 6 WP MM NOT_NAMED 2004-02-13 12:00:00 TS 13.4000 135.950 main 1141 1107 O_O___________ jtwc_wp WP012004 13.4000 135.900 TS 35 997 0 1008 100 30 13.4000 136.000 1 29 1002 9 312
2004042N08148 2004 6 WP MM NOT_NAMED 2004-02-13 15:00:00 TS 13.7037 135.626 main 1107 1089 P_P___________ WP012004 13.7424 135.605 TS 37 995 0 1007 150 30 13.6650 135.647 1 29 1001 8 318
2004042N08148 2004 6 WP MM NOT_NAMED 2004-02-13 18:00:00 TS 14.0000 135.400 main 1091 1082 O_O___________ jtwc_wp WP012004 14.1000 135.400 TS 40 994 0 40 40 30 40 1006 200 30 13.9000 135.400 1 29 1000 7 329
2004042N08148 2004 6 WP MM NOT_NAMED 2004-02-13 21:00:00 TS 14.2937 135.265 main 1086 1078 P_P___________ WP012004 14.4649 135.233 TS 37 995 0 40 40 30 40 1006 200 30 14.1224 135.297 1 29 1000 6 346
2004042N08148 2004 6 WP MM NOT_NAMED 2004-02-14 00:00:00 TS 14.5556 135.256 main 1094 1094 O_OO__________ jtwc_wp WP012004 14.8000 135.200 TS 35 997 0 40 40 30 40 1006 200 30 14.3000 135.300 1 29 1000 14.6000 135.300 TD 25 1002 5 9
2004042N08148 2004 6 WP MM NOT_NAMED 2004-02-14 03:00:00 TS 14.8015 135.350 main 1099 1099 P_PP__________ WP012004 15.1401 135.362 TS 35 997 0 40 40 30 40 1005 175 25 14.4150 135.335 1 29 1000 14.8974 135.355 TD 25 1002 5 29
2004042N08148 2004 6 WP MM NOT_NAMED 2004-02-14 06:00:00 TS 14.9818 135.500 main 1125 1125 O_OO__________ jtwc_wp WP012004 15.3000 135.600 TS 35 997 0 40 40 30 40 1004 150 20 14.5000 135.400 1 29 1000 15.2000 135.500 TD 25 1002 4 49
2004042N08148 2004 6 WP MM NOT_NAMED 2004-02-14 09:00:00 TS 15.0617 135.657 main 1149 1149 P_PP__________ WP012004 15.0950 135.750 TS 32 998 -1 1004 150 20 14.6075 135.435 1 29 1001 15.4826 135.785 TD 25 1002 3 81
2004042N08148 2004 6 WP MM NOT_NAMED 2004-02-14 12:00:00 TS 15.0333 135.833 main 1156 1156 O_OO__________ jtwc_wp WP012004 14.8000 135.900 TD 30 1000 -1 1004 150 20 14.7000 135.500 1 29 1002 15.6000 136.100 TD 25 1002 4 107
2004042N08148 2004 6 WP MM NOT_NAMED 2004-02-14 15:00:00 TS 14.9575 136.014 main 1177 1175 P_PP__________ WP012004 14.6975 136.100 TD 30 1000 -1 1004 135 30 14.7724 135.605 1 29 1002 15.4025 136.338 TD 25 1002 4 115
2004042N08148 2004 6 WP MM NOT_NAMED 2004-02-14 18:00:00 TS 14.8667 136.200 main 1195 1195 O_OO__________ jtwc_wp WP012004 14.7000 136.300 TD 30 1000 -1 1004 120 40 14.8000 135.800 1 29 1002 15.1000 136.500 TD 25 1002 4 111
2004042N08148 2004 6 WP MM NOT_NAMED 2004-02-14 21:00:00 TS 14.8234 136.386 main 1214 1214 P_PP__________ WP012004 14.8000 136.450 TD 30 1000 -1 1004 120 40 14.7577 136.150 1 29 1002 14.9125 136.557 TD 25 1002 4 101
2004042N08148 2004 6 WP MM NOT_NAMED 2004-02-15 00:00:00 TS 14.8000 136.567 main 1235 1235 O_OO__________ jtwc_wp WP012004 14.9000 136.600 TD 30 1000 -1 1004 120 40 14.7000 136.500 1 29 1002 14.8000 136.600 TD 25 1002 4 94
2004042N08148 2004 6 WP MM NOT_NAMED 2004-02-15 03:00:00 TS 14.8008 136.761 main 1256 1256 P_PP__________ WP012004 14.8876 136.838 TD 30 1000 -1 1004 120 40 14.7224 136.687 1 29 1002 14.7925 136.757 TD 25 1002 3 96
2004042N08148 2004 6 WP MM NOT_NAMED 2004-02-15 06:00:00 TS 14.7667 136.900 main 1266 1264 O_OO__________ jtwc_wp WP012004 14.8000 137.000 TD 30 1000 -1 1004 120 40 14.7000 136.800 1 29 1002 14.8000 136.900 TD 25 1002 3 131
2004042N08148 2004 6 WP MM NOT_NAMED 2004-02-15 09:00:00 TS 14.6291 136.960 main 1273 1260 P_PP__________ WP012004 14.6574 136.982 TD 27 1001 -1 1004 120 40 14.5225 136.953 1 29 1002 14.7075 136.945 TD 25 1002 3 0
2004042N08148 2004 6 WP MM NOT_NAMED 2004-02-15 12:00:00 TS 14.4667 136.900 main 1260 1237 O_OO__________ jtwc_wp WP012004 14.5000 136.800 TD 25 1002 -1 1004 120 40 14.3000 137.000 1 29 1002 14.6000 136.900 TD 25 1002 3 231
2004042N08148 2004 6 WP MM NOT_NAMED 2004-02-15 15:00:00 TS 14.4317 136.704 main 1237 1203 P_PP__________ WP012004 14.4527 136.458 TD 25 1002 -1 1004 120 50 14.1950 136.860 1 29 1002 14.6474 136.795 TD 25 1002 5 246
2004042N08148 2004 6 WP MM NOT_NAMED 2004-02-15 18:00:00 TS 14.2667 136.433 main 1203 1172 O_OO__________ jtwc_wp WP012004 14.3000 136.100 TD 25 1002 -1 1004 120 60 14.0000 136.600 1 29 1002 14.5000 136.600 TD 25 1002 8 218
2004042N08148 2004 6 WP MM NOT_NAMED 2004-02-15 21:00:00 TS 13.7658 136.176 main 1172 1123 P_PP__________ WP012004 13.8899 135.905 TD 25 1002 -1 1004 120 60 13.5675 136.307 1 29 1002 13.8400 136.315 TD 25 1002 13 203
2004042N08148 2004 6 WP MM NOT_NAMED 2004-02-16 00:00:00 TS 13.1091 135.927 main 1123 1102 O_OO__________ jtwc_wp WP012004 13.3000 135.800 TD 25 1002 -1 1004 120 60 13.0000 136.000 1 29 1002 13.0000 136.000 TD 25 1002 14 198
2004042N08148 2004 6 WP MM NOT_NAMED 2004-02-16 03:00:00 TS 12.4860 135.750 main 1091 1071 P_PP__________ WP012004 12.6074 135.765 TD 25 1002 -1 1004 120 60 12.4599 135.743 1 29 1002 12.2950 135.733 TD 25 1002 13 194
2004042N08148 2004 6 WP MM NOT_NAMED 2004-02-16 06:00:00 TS 11.8375 135.600 main 1068 1032 O_OO__________ jtwc_wp WP012004 11.9000 135.700 TD 25 1002 -1 1004 120 60 11.8000 135.500 1 29 1002 11.7000 135.500 TD 25 1002 14 194
2004042N08148 2004 6 WP MM NOT_NAMED 2004-02-16 09:00:00 TS 11.1784 135.419 main 1032 999 P_P___________ WP012004 11.2900 135.502 TD 25 1002 -1 10.9551 135.252 1 29 1002 TD 13 200
2004042N08148 2004 6 WP MM NOT_NAMED 2004-02-16 12:00:00 TS 10.6400 135.160 main 996 951 O_O___________ jtwc_wp WP012004 10.8000 135.200 TD 25 1002 -1 10.0000 135.000 1 29 1002 10 221
2004042N08148 2004 6 WP MM NOT_NAMED 2004-02-16 15:00:00 TS 10.4626 134.785 main 951 901 P_____________ WP012004 10.4626 134.785 TD 25 1002 -1 1 9 240
2004042N08148 2004 6 WP MM NOT_NAMED 2004-02-16 18:00:00 TS 10.2000 134.400 main 901 871 O_____________ jtwc_wp WP012004 10.2000 134.400 TD 25 1002 -1 8 224
2004042N08148 2004 6 WP MM NOT_NAMED 2004-02-16 21:00:00 TS 9.87742 134.205 main 871 852 P_____________ WP012004 9.87742 134.205 TD 25 1002 -1 7 206
2004042N08148 2004 6 WP MM NOT_NAMED 2004-02-17 00:00:00 TS 9.60000 134.100 main 852 836 O_____________ jtwc_wp WP012004 9.60000 134.100 TD 25 1002 -1 5 205
2004042N08148 2004 6 WP MM NOT_NAMED 2004-02-17 03:00:00 TS 9.41999 133.993 main 836 823 P_____________ WP012004 9.41999 133.993 TD 25 1002 -1 4 213
2004042N08148 2004 6 WP MM NOT_NAMED 2004-02-17 06:00:00 TS 9.30000 133.900 main 823 810 O_____________ jtwc_wp WP012004 9.30000 133.900 TD 25 1002 -1 3 219
2004042N08148 2004 6 WP MM NOT_NAMED 2004-02-17 09:00:00 TS 9.18500 133.800 main 810 797 P_____________ WP012004 9.18500 133.800 TD 25 1002 -1 3 225
2004042N08148 2004 6 WP MM NOT_NAMED 2004-02-17 12:00:00 TS 9.10000 133.700 main 797 784 O_____________ jtwc_wp WP012004 9.10000 133.700 TD 25 1002 -1 2 234
2004042N08148 2004 6 WP MM NOT_NAMED 2004-02-17 15:00:00 TS 9.04250 133.600 main 784 773 P_____________ WP012004 9.04250 133.600 TD 25 1002 -1 2 243
2004042N08148 2004 6 WP MM NOT_NAMED 2004-02-17 18:00:00 TS 9.00000 133.500 main 773 762 O_____________ jtwc_wp WP012004 9.00000 133.500 TD 25 1002 -1 2 245
2004042N08148 2004 6 WP MM NOT_NAMED 2004-02-17 21:00:00 TS 8.95000 133.400 main 762 749 P_____________ WP012004 8.95000 133.400 TD 25 1002 -1 2 243
2004042N08148 2004 6 WP MM NOT_NAMED 2004-02-18 00:00:00 TS 8.90000 133.300 main 749 739 O_____________ jtwc_wp WP012004 8.90000 133.300 TD 25 1002 -1 2 243
2004042N08148 2004 6 WP MM NOT_NAMED 2004-02-18 03:00:00 TS 8.85000 133.200 main 739 726 P_____________ WP012004 8.85000 133.200 TD 25 1002 -1 2 243
2004042N08148 2004 6 WP MM NOT_NAMED 2004-02-18 06:00:00 TS 8.80000 133.100 main 726 715 O_____________ jtwc_wp WP012004 8.80000 133.100 TD 25 1002 -1 2 243
2004042N08148 2004 6 WP MM NOT_NAMED 2004-02-18 09:00:00 TS 8.75000 133.000 main 715 702 P_____________ WP012004 8.75000 133.000 TD 25 1002 -1 2 243
2004042N08148 2004 6 WP MM NOT_NAMED 2004-02-18 12:00:00 TS 8.70000 132.900 main 702 692 O_____________ jtwc_wp WP012004 8.70000 132.900 TD 25 1002 -1 2 243
2004042N08148 2004 6 WP MM NOT_NAMED 2004-02-18 15:00:00 TS 8.65000 132.800 main 690 679 P_____________ WP012004 8.65000 132.800 TD 25 1002 -1 2 243
2004042N08148 2004 6 WP MM NOT_NAMED 2004-02-18 18:00:00 TS 8.60000 132.700 main 679 667 O_____________ jtwc_wp WP012004 8.60000 132.700 TD 25 1002 -1 2 241
2004042N08148 2004 6 WP MM NOT_NAMED 2004-02-18 21:00:00 TS 8.54250 132.600 main 667 656 P_____________ WP012004 8.54250 132.600 TD 22 1003 -1 2 243
2004042N08148 2004 6 WP MM NOT_NAMED 2004-02-19 00:00:00 TS 8.50000 132.500 main 656 645 O_____________ jtwc_wp WP012004 8.50000 132.500 TD 20 1004 -1 2 255
2004042N08148 2004 6 WP MM NOT_NAMED 2004-02-19 03:00:00 TS 8.49001 132.400 main 645 634 P_____________ WP012004 8.49001 132.400 TD 20 1004 -1 2 270
2004042N08148 2004 6 WP MM NOT_NAMED 2004-02-19 06:00:00 TS 8.50000 132.300 main 634 O_____________ jtwc_wp WP012004 8.50000 132.300 TD 20 1004 -1 2 276

デジタル台風データ・検索

IBTrACS Databaseについて

本データベースは、米国NOAAが公開する1842年以降の世界の熱帯低気圧のベストトラックデータアーカイブInternational Best Track Archive for Climate Stewardship (IBTrACS)を、ウェブで閲覧しやすい形式に変換したものです。

最終更新日:2021-12-06